Colvin, Minnesota
Current Conditions -  °F | °C
As of 4:31 AM on Thursday 27 Nov 2014 (Local Time) from KEVM Reporting Station
Light Snow Light Snow  
Wind Chill: -8°   Ceiling: 600
Heat Index: -8°   Visibility: 4mi
Dew Point: -13°   Wind: 3mph
Humidity: 77%   Direction: 300°WNW
Pressure: 30.42"   Gusts: NA
Location:  47.3034°N, 92.2081°W
Report Text: KEVM 271031Z AUTO 30003KT 4SM -SN OVC006 M22/M25 A3042 RMK AO2
Loading
Personal Weather Stations






























Interactive Weather Map New forecast layout! Learn more

10-Day Weather Forecast

Advertisements
Track Severe Weather on mobile